Aspen, CO (81611)

12:21 AM MST on January 24, 2017 (GMT -0700)
Tiehack Aspen Colorado | | Change Station
Active Advisory: Winter Weather Advisory Active Notice: Public Information Statement

Elev 8500 ft 39.20 °N, 106.85 °W | Updated 60 seconds ago

Scattered Clouds
Scattered Clouds
20.0 °F
Feels Like 20 °F
N
0.5
Wind Variable Wind from NNW
Gusts 1.4 mph

Today
High -- | Low -- °F
--% Chance of Precip.
Yesterday
High -- | Low -- °F
Precip. -- in
Pressure 29.44 in
Visibility 10.0 miles
Clouds Scattered Clouds 11000 ft
Windchill 20 °F
Dew Point 20 °F
Humidity 100%
Rainfall 0.00 in
Snow Depth Not available.
7:20 AM 5:19 PM
Waning Crescent, 13% visible
METAR KASE 240653Z AUTO 35005KT 10SM SCT110 M05/M08 A2950 RMK AO2 SLP969 T10501078 400111078
Pressure 29.44 in
Visibility 10.0 miles
Clouds Scattered Clouds 11000 ft
Windchill 20 °F
Dew Point 20 °F
Humidity 100%
Rainfall 0.00 in
Snow Depth Not available.
7:20 AM 5:19 PM
Waning Crescent, 13% visible
METAR KASE 240653Z AUTO 35005KT 10SM SCT110 M05/M08 A2950 RMK AO2 SLP969 T10501078 400111078

Get Your Daily Forecast Email!

Thanks for signing up!

Be on the lookout for a verification email in your inbox.

You'll start receiving the daily forecast at 8 AM.

×

10-Day Weather Forecast

Almanac

Astronomy

Jan. 24, 2017 Rise Set
Actual Time
Civil Twilight
Nautical Twilight
Astronomical Twilight
Moon
Length of Visible Light
Length of Day
Tomorrow will be .
, % of the Moon is Illuminated

Today's Extremes

State Highs State Lows

Community

WunderPhotos

Upload Photos

1,962,540 photos uploaded!

WunderBlog® & News

Nearby

Air Quality

  Air Quality AQ Index Pollutant
Not available.

Snow Depth

Station Depth Elevation

Earthquake Activity

City Distance Mag. Time & Date
Minimum magnitude displayed is 2.5.

Coastal Water Temperatures

Place Temperature

Stations

Nearby Weather Stations

Station Location Temp. Windchill Dew Point Humidity Wind Precip. Elev Updated Type
                   

Watches & Warnings

Winter Weather Advisory
Issued: 10:50 PM MST Jan. 23, 2017 – National Weather Service

... Winter Weather Advisory remains in effect until 9 am MST
Wednesday...

* locations include the cities of... Aspen... Vail... Snowmass.

* Timing... periods of snow will continue through Tuesday night.

* Snow accumulation... 6 to 12 inches with locally higher amounts
over the higher terrain of The Flat Tops and park ranges.

* Winds... southwest 20 to 30 mph with gusts up to 45 mph
shifting to the northwest and decreasing tonight.

* Impacts... mountain roadways will be snow packed with winter
driving conditions continuing through the middle of the week.
Visibilities will be reduced to under a half mile at times
during the heaviest snowfall.

Precautionary/preparedness actions...

A Winter Weather Advisory means that periods of snow and/or
blowing snow will cause travel difficulties. Be prepared for
slippery roads and limited visibilities... and use caution while
driving.